Time;durP1;ratioP1;P1;durP2;ratioP2;P2;SDS_P1;SDS_P2;PMS_P1;PMS_P2;Temp;Humidity;BMP_temperature;BMP_pressure;BME280_temperature;BME280_humidity;BME280_pressure;Samples;Min_cycle;Max_cycle;Signal;HPM_P1;HPM_P2
2021/06/26 00:00:28;;;;;;;1.85;1.00;;;19.80;99.90;;;;;;4993039;28;20164;-86
2021/06/26 00:02:54;;;;;;;2.70;1.13;;;19.90;99.90;;;;;;4993322;28;20140;-87
2021/06/26 00:05:19;;;;;;;2.38;1.00;;;19.90;99.90;;;;;;4993594;28;20034;-85
2021/06/26 00:07:45;;;;;;;2.20;0.93;;;19.90;99.90;;;;;;4993542;28;20060;-84
2021/06/26 00:10:12;;;;;;;3.00;1.05;;;19.90;99.90;;;;;;4993349;28;20371;-84
2021/06/26 00:12:37;;;;;;;2.28;1.23;;;19.80;99.90;;;;;;4993375;28;20022;-85
2021/06/26 00:15:06;;;;;;;2.20;0.95;;;19.80;99.90;;;;;;4993159;28;20026;-82
2021/06/26 00:17:32;;;;;;;1.58;1.02;;;19.80;99.90;;;;;;4992836;28;20030;-84
2021/06/26 00:20:00;;;;;;;1.30;0.90;;;19.80;99.90;;;;;;4992558;28;20038;-86
2021/06/26 00:22:25;;;;;;;2.88;1.20;;;19.80;99.90;;;;;;4992700;28;20402;-86
2021/06/26 00:24:51;;;;;;;2.55;1.15;;;19.80;99.90;;;;;;4993092;28;20038;-86
2021/06/26 00:27:17;;;;;;;1.63;0.98;;;19.80;99.90;;;;;;4993983;28;20022;-84
2021/06/26 00:29:42;;;;;;;1.75;0.90;;;19.80;99.90;;;;;;4992985;28;20030;-85
2021/06/26 00:32:08;;;;;;;2.55;1.08;;;19.80;99.90;;;;;;4992868;28;20026;-83
2021/06/26 00:34:33;;;;;;;2.35;1.25;;;19.80;99.90;;;;;;4992464;28;20109;-83
2021/06/26 00:36:59;;;;;;;2.30;1.20;;;19.80;99.90;;;;;;4992996;28;20029;-83
2021/06/26 00:39:25;;;;;;;2.00;1.10;;;19.80;99.90;;;;;;4992457;28;20030;-84
2021/06/26 00:41:51;;;;;;;1.33;0.90;;;19.80;99.90;;;;;;4993008;28;20030;-83
2021/06/26 00:44:16;;;;;;;1.92;1.33;;;19.80;99.90;;;;;;4992789;28;20375;-82
2021/06/26 00:46:42;;;;;;;1.88;1.10;;;19.80;99.90;;;;;;4992198;28;20145;-83
2021/06/26 00:49:08;;;;;;;2.20;1.13;;;19.80;99.90;;;;;;4992220;28;20026;-83
2021/06/26 00:51:33;;;;;;;1.88;0.90;;;19.80;99.90;;;;;;4991936;28;20034;-82
2021/06/26 00:54:00;;;;;;;3.17;1.35;;;19.80;99.90;;;;;;4992293;28;20053;-84
2021/06/26 00:56:26;;;;;;;1.75;1.10;;;19.80;99.90;;;;;;4991209;28;20133;-84
2021/06/26 00:58:54;;;;;;;1.75;0.98;;;19.70;99.90;;;;;;4992972;28;20026;-86
2021/06/26 01:01:20;;;;;;;2.60;1.20;;;19.80;99.90;;;;;;4992198;28;20115;-84
2021/06/26 01:03:46;;;;;;;2.65;1.23;;;19.70;99.90;;;;;;4991315;28;20029;-81
2021/06/26 01:06:15;;;;;;;2.67;0.93;;;19.80;99.90;;;;;;4992431;28;20038;-81
2021/06/26 01:08:41;;;;;;;2.85;1.15;;;19.70;99.90;;;;;;4992071;28;20554;-81
2021/06/26 01:11:07;;;;;;;1.15;0.95;;;19.70;99.90;;;;;;4992173;28;20034;-80
2021/06/26 01:13:33;;;;;;;2.28;1.23;;;19.70;99.90;;;;;;4991639;28;20160;-83
2021/06/26 01:15:58;;;;;;;2.60;1.08;;;19.70;99.90;;;;;;4992184;28;20105;-84
2021/06/26 01:18:24;;;;;;;1.67;0.98;;;19.70;99.90;;;;;;4991770;28;20081;-84
2021/06/26 01:20:51;;;;;;;4.50;1.35;;;19.70;99.90;;;;;;4991785;28;20514;-84
2021/06/26 01:23:18;;;;;;;2.00;1.15;;;19.70;99.90;;;;;;4992428;28;20025;-83
2021/06/26 01:25:44;;;;;;;1.70;0.95;;;19.70;99.90;;;;;;4991618;28;20106;-82
2021/06/26 01:28:09;;;;;;;1.80;1.23;;;19.70;99.90;;;;;;4990774;28;20113;-82
2021/06/26 01:30:36;;;;;;;3.78;1.42;;;19.70;99.90;;;;;;4991002;28;20109;-82
2021/06/26 01:33:03;;;;;;;3.47;1.00;;;19.70;99.90;;;;;;4990379;28;20049;-82
2021/06/26 01:35:30;;;;;;;3.20;1.63;;;19.70;99.90;;;;;;4991184;28;20030;-84
2021/06/26 01:37:56;;;;;;;1.85;1.13;;;19.70;99.90;;;;;;4990782;28;20105;-85
2021/06/26 01:40:25;;;;;;;2.25;1.38;;;19.70;99.90;;;;;;4990282;28;20138;-85
2021/06/26 01:42:52;;;;;;;1.70;1.08;;;19.70;99.90;;;;;;4988295;28;20031;-85
2021/06/26 01:45:18;;;;;;;2.17;1.10;;;19.70;99.90;;;;;;4996272;28;20042;-85
2021/06/26 01:47:55;;;;;;;1.48;1.00;;;19.70;99.90;;;;;;4991368;28;20030;-84
2021/06/26 01:50:23;;;;;;;1.48;1.00;;;19.70;99.90;;;;;;4989553;28;20032;-84
2021/06/26 01:52:50;;;;;;;2.58;1.17;;;19.70;99.90;;;;;;4989990;28;20058;-84
2021/06/26 01:55:16;;;;;;;3.05;1.35;;;19.70;99.90;;;;;;4991660;28;20065;-83
2021/06/26 01:57:44;;;;;;;1.70;1.27;;;19.70;99.90;;;;;;4991116;28;20022;-82
2021/06/26 02:00:11;;;;;;;2.00;1.20;;;19.70;99.90;;;;;;4990266;28;20042;-83
2021/06/26 02:02:37;;;;;;;1.60;0.98;;;19.70;99.90;;;;;;4992687;28;20038;-82
2021/06/26 02:05:04;;;;;;;1.67;1.13;;;19.70;99.90;;;;;;4991336;28;20406;-81
2021/06/26 02:07:30;;;;;;;1.50;1.17;;;19.70;99.90;;;;;;4991458;28;20491;-82
2021/06/26 02:09:55;;;;;;;2.30;1.00;;;19.70;99.90;;;;;;4992073;28;20104;-82
2021/06/26 02:12:21;;;;;;;2.22;1.38;;;19.70;99.90;;;;;;4991679;28;20022;-81
2021/06/26 02:14:47;;;;;;;2.08;1.20;;;19.70;99.90;;;;;;4992809;28;20033;-81
2021/06/26 02:17:12;;;;;;;2.67;1.25;;;19.70;99.90;;;;;;4991756;28;20459;-81
2021/06/26 02:19:38;;;;;;;1.60;0.98;;;19.70;99.90;;;;;;4991341;28;20037;-83
2021/06/26 02:22:03;;;;;;;2.58;1.08;;;19.70;99.90;;;;;;5006172;28;20474;-83
2021/06/26 02:24:29;;;;;;;1.73;0.88;;;19.70;99.90;;;;;;4991354;28;20057;-81
2021/06/26 02:26:55;;;;;;;2.53;1.05;;;19.70;99.90;;;;;;4991409;28;20088;-81
2021/06/26 02:29:20;;;;;;;2.75;1.23;;;19.70;99.90;;;;;;5006516;28;20023;-80
2021/06/26 02:31:46;;;;;;;3.53;1.23;;;19.70;99.90;;;;;;4990368;28;20035;-79
2021/06/26 02:34:13;;;;;;;2.35;1.08;;;19.60;99.90;;;;;;4991573;28;20034;-80
2021/06/26 02:36:40;;;;;;;2.03;1.20;;;19.60;99.90;;;;;;4990866;28;20395;-80
2021/06/26 02:39:05;;;;;;;2.22;1.10;;;19.60;99.90;;;;;;4991559;28;20034;-81
2021/06/26 02:41:31;;;;;;;1.50;0.85;;;19.60;99.90;;;;;;4990236;28;20390;-81
2021/06/26 02:43:57;;;;;;;1.63;0.93;;;19.60;99.90;;;;;;4991259;28;20053;-82
2021/06/26 02:46:22;;;;;;;3.05;1.10;;;19.60;99.90;;;;;;4989715;28;20062;-82
2021/06/26 02:48:51;;;;;;;2.20;1.63;;;19.60;99.90;;;;;;4993741;28;20432;-82
2021/06/26 02:51:16;;;;;;;1.30;1.00;;;19.60;99.90;;;;;;4994781;28;20034;-82
2021/06/26 02:53:42;;;;;;;1.50;1.10;;;19.60;99.90;;;;;;4978469;28;20029;-82
2021/06/26 02:56:08;;;;;;;1.85;1.30;;;19.60;99.90;;;;;;4975587;28;20510;-82
2021/06/26 02:58:34;;;;;;;2.25;1.30;;;19.60;99.90;;;;;;4994308;28;20033;-81
2021/06/26 03:01:00;;;;;;;2.10;1.15;;;19.60;99.90;;;;;;4992501;28;20031;-82
2021/06/26 03:03:26;;;;;;;3.17;1.42;;;19.60;99.90;;;;;;4994436;28;20023;-82
2021/06/26 03:05:52;;;;;;;1.27;1.17;;;19.60;99.90;;;;;;4993586;28;20034;-84
2021/06/26 03:08:17;;;;;;;1.85;1.27;;;19.60;99.90;;;;;;4995132;28;20545;-84
2021/06/26 03:10:43;;;;;;;1.98;1.40;;;19.60;99.90;;;;;;4994488;28;20030;-84
2021/06/26 03:13:09;;;;;;;1.40;0.95;;;19.60;99.90;;;;;;4994078;28;20022;-84
2021/06/26 03:15:34;;;;;;;1.83;1.13;;;19.60;99.90;;;;;;4993592;28;20520;-84
2021/06/26 03:18:00;;;;;;;1.58;1.08;;;19.60;99.90;;;;;;4994400;28;20494;-84
2021/06/26 03:20:26;;;;;;;3.28;0.98;;;19.60;99.90;;;;;;4993820;28;20106;-84
2021/06/26 03:22:52;;;;;;;2.13;1.10;;;19.60;99.90;;;;;;4993549;28;20054;-85
2021/06/26 03:25:17;;;;;;;2.03;1.00;;;19.60;99.90;;;;;;4994408;28;20568;-86
2021/06/26 03:27:44;;;;;;;2.10;1.27;;;19.60;99.90;;;;;;4993533;28;20072;-82
2021/06/26 03:30:10;;;;;;;1.83;1.30;;;19.60;99.90;;;;;;4994285;28;20030;-83
2021/06/26 03:32:36;;;;;;;1.90;1.00;;;19.60;99.90;;;;;;4993582;28;20034;-84
2021/06/26 03:35:02;;;;;;;1.52;1.17;;;19.60;99.90;;;;;;4994502;28;20026;-83
2021/06/26 03:37:28;;;;;;;1.75;1.17;;;19.60;99.90;;;;;;4991778;28;20541;-83
2021/06/26 03:39:54;;;;;;;2.03;1.20;;;19.60;99.90;;;;;;4992708;28;20113;-83
2021/06/26 03:42:19;;;;;;;1.75;0.82;;;19.60;99.90;;;;;;4994073;28;20072;-84
2021/06/26 03:44:45;;;;;;;3.72;1.20;;;19.60;99.90;;;;;;4995280;28;20046;-82
2021/06/26 03:47:11;;;;;;;1.20;1.00;;;19.60;99.90;;;;;;4992359;28;20518;-82
2021/06/26 03:49:38;;;;;;;2.38;1.58;;;19.60;99.90;;;;;;5004777;28;20033;-81
2021/06/26 03:52:05;;;;;;;1.90;1.42;;;19.60;99.90;;;;;;4992710;28;20034;-82
2021/06/26 03:54:31;;;;;;;1.63;1.15;;;19.60;99.90;;;;;;4993288;28;20084;-82
2021/06/26 03:56:57;;;;;;;1.85;1.10;;;19.60;99.90;;;;;;4994063;28;20434;-84
2021/06/26 03:59:22;;;;;;;1.67;1.00;;;19.60;99.90;;;;;;5007810;28;20048;-83
2021/06/26 04:01:48;;;;;;;1.98;1.23;;;19.60;99.90;;;;;;4993845;28;20049;-82
2021/06/26 04:04:14;;;;;;;2.00;0.90;;;19.60;99.90;;;;;;4993313;28;20534;-81
2021/06/26 04:06:40;;;;;;;2.10;1.10;;;19.60;99.90;;;;;;4993444;28;20394;-84
2021/06/26 04:09:05;;;;;;;3.00;1.17;;;19.60;99.90;;;;;;4993298;28;20037;-83
2021/06/26 04:11:31;;;;;;;2.08;1.15;;;19.60;99.90;;;;;;4993233;28;20162;-83
2021/06/26 04:13:57;;;;;;;1.17;0.90;;;19.60;99.90;;;;;;4993211;28;20034;-83
2021/06/26 04:16:22;;;;;;;1.48;1.10;;;19.60;99.90;;;;;;4993277;28;20061;-82
2021/06/26 04:18:48;;;;;;;1.45;1.00;;;19.60;99.90;;;;;;4993282;28;20394;-81
2021/06/26 04:21:14;;;;;;;2.25;1.25;;;19.60;99.90;;;;;;4993261;28;20026;-82
2021/06/26 04:23:39;;;;;;;1.77;0.90;;;19.60;99.90;;;;;;4992255;28;20034;-82
2021/06/26 04:26:05;;;;;;;1.35;1.25;;;19.50;99.90;;;;;;4993016;28;20035;-83
2021/06/26 04:28:31;;;;;;;2.30;1.02;;;19.50;99.90;;;;;;4992368;28;20041;-85
2021/06/26 04:30:57;;;;;;;1.50;1.10;;;19.50;99.90;;;;;;4992431;28;20391;-83
2021/06/26 04:33:25;;;;;;;1.73;1.27;;;19.50;99.90;;;;;;4993022;28;20030;-83
2021/06/26 04:35:51;;;;;;;3.03;0.90;;;19.60;99.90;;;;;;4992364;28;20034;-84
2021/06/26 04:38:21;;;;;;;1.30;0.90;;;19.50;99.90;;;;;;4993271;28;20027;-83
2021/06/26 04:40:51;;;;;;;2.33;1.25;;;19.60;99.90;;;;;;4993144;28;20494;-84
2021/06/26 04:43:18;;;;;;;2.78;1.10;;;19.60;99.90;;;;;;4991544;28;20037;-84
2021/06/26 04:45:47;;;;;;;1.17;1.00;;;19.50;99.90;;;;;;4992783;28;20030;-85
2021/06/26 04:48:18;;;;;;;1.23;0.82;;;19.60;99.90;;;;;;4992373;28;20589;-84
2021/06/26 04:50:43;;;;;;;1.90;1.40;;;19.50;99.90;;;;;;4992163;28;20026;-84
2021/06/26 04:53:09;;;;;;;1.60;0.93;;;19.50;99.90;;;;;;4992377;28;20088;-80
2021/06/26 04:55:35;;;;;;;2.38;1.05;;;19.50;99.90;;;;;;5003568;28;20046;-82
2021/06/26 04:58:00;;;;;;;3.72;1.00;;;19.50;99.90;;;;;;4992188;28;20105;-82
2021/06/26 05:00:26;;;;;;;1.60;1.00;;;19.50;99.90;;;;;;4990846;28;20034;-81
2021/06/26 05:02:51;;;;;;;1.08;0.77;;;19.60;99.90;;;;;;5022102;28;20034;-83
2021/06/26 05:05:17;;;;;;;2.55;1.48;;;19.50;99.90;;;;;;4992278;28;20034;-83
2021/06/26 05:07:43;;;;;;;1.10;0.90;;;19.50;99.90;;;;;;4992158;28;20026;-83
2021/06/26 05:10:09;;;;;;;1.40;0.88;;;19.50;99.90;;;;;;4991010;28;20034;-84
2021/06/26 05:12:41;;;;;;;3.22;0.90;;;19.50;99.90;;;;;;4992240;28;20072;-84
2021/06/26 05:15:07;;;;;;;1.80;1.00;;;19.50;99.90;;;;;;4992547;28;20035;-84
2021/06/26 05:17:32;;;;;;;1.48;1.02;;;19.50;99.90;;;;;;5007085;28;20391;-83
2021/06/26 05:19:58;;;;;;;1.60;0.88;;;19.50;99.90;;;;;;4991933;28;20034;-82
2021/06/26 05:22:24;;;;;;;1.90;0.90;;;19.50;99.90;;;;;;4991368;28;20026;-82
2021/06/26 05:24:49;;;;;;;3.58;1.33;;;19.50;99.90;;;;;;4991015;28;20066;-81
2021/06/26 05:27:15;;;;;;;1.90;0.98;;;19.50;99.90;;;;;;4992282;28;20030;-82
2021/06/26 05:29:42;;;;;;;2.05;1.02;;;19.50;99.90;;;;;;4991021;28;20068;-81
2021/06/26 05:32:09;;;;;;;1.92;0.80;;;19.50;99.90;;;;;;4991654;28;20018;-83
2021/06/26 05:34:35;;;;;;;2.10;1.00;;;19.50;99.90;;;;;;4991603;28;20038;-82
2021/06/26 05:37:01;;;;;;;1.20;0.80;;;19.50;99.90;;;;;;4991691;28;20521;-83
2021/06/26 05:39:26;;;;;;;2.20;0.95;;;19.50;99.90;;;;;;4991583;28;20038;-84
2021/06/26 05:41:52;;;;;;;1.40;0.70;;;19.50;99.90;;;;;;4992160;28;20085;-85
2021/06/26 05:44:18;;;;;;;1.42;0.80;;;19.50;99.90;;;;;;4992100;28;20113;-84
2021/06/26 05:46:44;;;;;;;1.02;0.77;;;19.50;99.90;;;;;;4991602;28;20084;-82
2021/06/26 05:49:09;;;;;;;1.63;1.00;;;19.50;99.90;;;;;;4990076;28;20549;-82
2021/06/26 05:51:35;;;;;;;2.05;0.90;;;19.50;99.90;;;;;;4989431;28;20030;-83
2021/06/26 05:54:01;;;;;;;2.15;1.05;;;19.50;99.90;;;;;;4990607;28;20049;-85
2021/06/26 05:56:26;;;;;;;1.75;0.90;;;19.50;99.90;;;;;;4988745;28;20030;-84
2021/06/26 05:58:52;;;;;;;1.13;0.80;;;19.50;99.90;;;;;;4990198;28;20027;-85
2021/06/26 06:01:19;;;;;;;2.25;0.98;;;19.50;99.90;;;;;;4990312;28;20038;-84
2021/06/26 06:03:46;;;;;;;1.30;1.00;;;19.50;99.90;;;;;;4990699;28;20046;-84
2021/06/26 06:06:12;;;;;;;1.65;0.88;;;19.50;99.90;;;;;;4991115;28;20045;-84
2021/06/26 06:08:38;;;;;;;2.17;0.95;;;19.50;99.90;;;;;;4991484;28;20026;-85
2021/06/26 06:11:04;;;;;;;1.52;0.90;;;19.40;99.90;;;;;;4991750;28;20034;-86
2021/06/26 06:13:30;;;;;;;2.58;0.77;;;19.50;99.90;;;;;;5004590;28;20022;-82
2021/06/26 06:15:56;;;;;;;1.30;0.73;;;19.50;99.90;;;;;;4990357;28;20031;-82
2021/06/26 06:18:22;;;;;;;3.35;0.75;;;19.50;99.90;;;;;;4991313;28;20033;-82
2021/06/26 06:20:48;;;;;;;1.58;0.77;;;19.50;99.90;;;;;;4991657;28;20022;-83
2021/06/26 06:23:14;;;;;;;1.40;0.80;;;19.50;99.90;;;;;;4994382;28;20385;-82
2021/06/26 06:25:40;;;;;;;1.40;0.93;;;19.50;99.90;;;;;;4994568;28;20503;-82
2021/06/26 06:28:06;;;;;;;2.97;0.77;;;19.50;99.90;;;;;;4994455;28;20391;-81
2021/06/26 06:30:33;;;;;;;1.08;0.77;;;19.50;99.90;;;;;;5006363;28;20114;-79
2021/06/26 06:33:00;;;;;;;1.38;0.93;;;19.50;99.90;;;;;;4975652;28;20077;-80
2021/06/26 06:35:26;;;;;;;1.27;0.90;;;19.60;99.90;;;;;;5011625;28;20023;-81
2021/06/26 06:37:52;;;;;;;2.55;0.95;;;19.60;99.90;;;;;;4994736;28;20022;-82
2021/06/26 06:40:18;;;;;;;0.90;0.73;;;19.60;99.90;;;;;;4995608;28;20474;-82
2021/06/26 06:42:44;;;;;;;0.65;0.55;;;19.60;99.90;;;;;;4994237;28;20077;-82
2021/06/26 06:45:11;;;;;;;1.40;0.82;;;19.60;99.90;;;;;;4993788;28;20837;-82
2021/06/26 06:47:37;;;;;;;1.73;0.95;;;19.60;99.90;;;;;;4994398;28;20026;-82
2021/06/26 06:50:05;;;;;;;1.30;0.90;;;19.60;99.90;;;;;;4994316;28;20379;-82
2021/06/26 06:52:31;;;;;;;1.48;0.82;;;19.60;99.90;;;;;;5009372;28;20030;-83
2021/06/26 06:54:57;;;;;;;1.60;0.80;;;19.60;99.90;;;;;;4993826;28;20041;-82
2021/06/26 06:57:24;;;;;;;1.45;0.80;;;19.70;99.90;;;;;;4994501;28;20494;-85
2021/06/26 06:59:50;;;;;;;1.33;0.80;;;19.60;99.90;;;;;;4997473;28;20023;-88
2021/06/26 07:02:16;;;;;;;1.77;0.88;;;19.60;99.90;;;;;;4994623;28;20035;-85
2021/06/26 07:04:42;;;;;;;3.22;1.00;;;19.60;99.90;;;;;;4992878;28;20077;-82
2021/06/26 07:07:08;;;;;;;1.27;0.77;;;19.70;99.90;;;;;;4994280;28;20081;-85
2021/06/26 07:09:33;;;;;;;1.48;0.80;;;19.70;99.90;;;;;;4994625;28;20022;-86
2021/06/26 07:11:59;;;;;;;3.53;1.20;;;19.70;99.90;;;;;;4994803;28;20110;-85
2021/06/26 07:14:25;;;;;;;5.72;1.33;;;19.70;99.90;;;;;;4994101;28;20027;-85
2021/06/26 07:16:51;;;;;;;26.55;5.75;;;19.70;99.90;;;;;;4995798;28;20371;-85
2021/06/26 07:19:17;;;;;;;3.30;1.70;;;19.70;99.90;;;;;;4993977;28;20105;-85
2021/06/26 07:21:43;;;;;;;7.65;1.73;;;19.70;99.90;;;;;;4993957;28;20368;-79
2021/06/26 07:24:09;;;;;;;9.20;2.10;;;19.80;99.90;;;;;;4994125;28;20037;-79
2021/06/26 07:26:35;;;;;;;8.25;1.73;;;19.80;99.90;;;;;;4994217;28;20023;-86
2021/06/26 07:29:00;;;;;;;7.13;1.52;;;19.80;99.90;;;;;;4993361;28;20037;-90
2021/06/26 07:31:26;;;;;;;10.05;2.00;;;19.80;99.90;;;;;;4996340;28;20394;-88
2021/06/26 07:33:52;;;;;;;8.73;1.63;;;19.90;99.90;;;;;;4993783;28;20034;-85
2021/06/26 07:36:18;;;;;;;6.60;2.15;;;19.90;99.90;;;;;;4994521;28;20394;-80
2021/06/26 07:38:43;;;;;;;5.95;1.70;;;19.90;99.90;;;;;;4992845;28;20030;-79
2021/06/26 07:41:09;;;;;;;4.85;1.70;;;19.90;99.90;;;;;;4994244;28;20450;-80
2021/06/26 07:43:35;;;;;;;7.82;1.50;;;19.90;99.90;;;;;;4993482;28;20618;-82
2021/06/26 07:46:02;;;;;;;17.70;2.00;;;19.90;99.90;;;;;;4994390;28;20048;-82
2021/06/26 07:48:28;;;;;;;14.88;1.70;;;19.90;99.90;;;;;;4992503;28;20041;-86
2021/06/26 07:50:54;;;;;;;6.15;1.30;;;19.90;99.90;;;;;;4993940;28;20026;-82
2021/06/26 07:53:20;;;;;;;4.55;1.80;;;19.90;99.90;;;;;;4994160;28;20486;-84
2021/06/26 07:55:53;;;;;;;2.80;1.55;;;19.90;99.90;;;;;;4993970;28;20023;-81
2021/06/26 07:58:26;;;;;;;7.50;1.23;;;19.90;99.90;;;;;;4992830;28;20033;-80
2021/06/26 08:00:53;;;;;;;4.03;1.38;;;20.00;99.90;;;;;;4993415;28;20026;-78
2021/06/26 08:03:19;;;;;;;4.88;1.38;;;20.00;99.90;;;;;;4994677;28;20057;-81
2021/06/26 08:05:46;;;;;;;5.97;1.50;;;20.00;99.90;;;;;;4995212;28;20072;-81
2021/06/26 08:08:11;;;;;;;9.23;1.35;;;20.00;99.90;;;;;;5013452;28;20022;-82
2021/06/26 08:10:37;;;;;;;5.10;1.42;;;20.00;99.90;;;;;;5013050;28;20037;-78
2021/06/26 08:13:03;;;;;;;8.55;1.65;;;20.00;99.90;;;;;;5005440;28;20022;-80
2021/06/26 08:15:30;;;;;;;3.35;1.20;;;20.10;99.90;;;;;;4992445;28;20442;-85
2021/06/26 08:17:56;;;;;;;5.38;1.40;;;20.10;99.90;;;;;;4992364;28;20438;-81
2021/06/26 08:20:23;;;;;;;4.50;1.10;;;20.10;99.90;;;;;;4991720;28;20026;-85
2021/06/26 08:22:49;;;;;;;7.45;1.42;;;20.20;99.90;;;;;;4993015;28;20030;-82
2021/06/26 08:25:14;;;;;;;6.18;1.38;;;20.10;99.90;;;;;;5007534;28;20046;-81
2021/06/26 08:27:41;;;;;;;3.08;1.52;;;20.20;99.90;;;;;;5007890;28;20065;-83
2021/06/26 08:30:07;;;;;;;4.13;1.42;;;20.20;99.90;;;;;;4992232;28;20077;-83
2021/06/26 08:32:32;;;;;;;4.35;1.13;;;20.20;99.90;;;;;;4992871;28;20015;-88
2021/06/26 08:34:58;;;;;;;6.93;1.20;;;20.20;99.90;;;;;;4993686;28;20077;-84
2021/06/26 08:37:24;;;;;;;3.55;1.02;;;20.20;99.90;;;;;;5007673;28;20129;-83
2021/06/26 08:39:49;;;;;;;3.25;0.90;;;20.20;99.90;;;;;;4993749;28;20030;-83
2021/06/26 08:42:18;;;;;;;3.78;1.15;;;20.20;99.90;;;;;;4993279;28;20058;-82
2021/06/26 08:44:48;;;;;;;4.25;1.13;;;20.20;99.90;;;;;;5006991;28;20034;-82
2021/06/26 08:47:14;;;;;;;4.25;1.08;;;20.20;99.90;;;;;;4992353;28;20073;-84
2021/06/26 08:49:40;;;;;;;3.13;0.90;;;20.20;99.90;;;;;;4992771;28;20071;-81
2021/06/26 08:52:06;;;;;;;2.70;0.75;;;20.20;99.90;;;;;;4992607;28;20015;-77
2021/06/26 08:54:32;;;;;;;4.10;0.98;;;20.20;99.90;;;;;;4992243;28;20081;-85
2021/06/26 08:56:57;;;;;;;4.57;1.05;;;20.20;99.90;;;;;;4991737;28;20053;-83
2021/06/26 08:59:23;;;;;;;2.38;0.95;;;20.30;99.90;;;;;;4991085;28;20375;-84
2021/06/26 09:01:49;;;;;;;2.65;1.05;;;20.30;99.90;;;;;;4993599;28;20022;-81
2021/06/26 09:04:17;;;;;;;5.18;1.00;;;20.30;99.90;;;;;;4991460;28;20084;-83
2021/06/26 09:07:01;;;;;;;6.85;1.00;;;20.30;99.90;;;;;;4992226;28;20487;-81
2021/06/26 09:09:34;;;;;;;5.38;1.00;;;20.30;99.90;;;;;;4991581;28;20037;-81
2021/06/26 09:12:05;;;;;;;3.70;1.10;;;20.30;99.90;;;;;;4991257;28;20032;-77
2021/06/26 09:14:31;;;;;;;6.82;1.00;;;20.30;99.90;;;;;;4991879;28;20026;-77
2021/06/26 09:16:57;;;;;;;4.60;1.15;;;20.30;99.90;;;;;;4992005;28;20033;-82
2021/06/26 09:19:23;;;;;;;2.83;0.75;;;20.30;99.90;;;;;;4991671;28;20034;-80
2021/06/26 09:22:00;;;;;;;6.18;1.10;;;20.30;99.90;;;;;;4991786;28;20108;-81
2021/06/26 09:24:36;;;;;;;2.78;0.80;;;20.30;99.90;;;;;;5005912;28;20473;-82
2021/06/26 09:27:02;;;;;;;10.13;0.80;;;20.30;99.90;;;;;;4992074;28;20038;-81
2021/06/26 09:29:28;;;;;;;0.85;0.70;;;20.30;99.90;;;;;;4991693;28;20030;-81
2021/06/26 09:31:55;;;;;;;6.07;0.80;;;20.40;99.90;;;;;;4990926;28;20026;-81
2021/06/26 09:34:35;;;;;;;5.30;1.00;;;20.40;99.90;;;;;;4991934;28;20368;-81
2021/06/26 09:37:02;;;;;;;3.15;1.13;;;20.40;99.90;;;;;;4991626;28;20030;-80
2021/06/26 09:39:40;;;;;;;3.55;1.10;;;20.40;99.90;;;;;;4991193;28;20414;-80
2021/06/26 09:42:19;;;;;;;2.17;0.82;;;20.40;99.90;;;;;;4990719;28;20117;-81
2021/06/26 09:44:49;;;;;;;3.72;1.35;;;20.40;99.90;;;;;;4992198;28;20065;-79
2021/06/26 09:47:43;;;;;;;2.28;0.80;;;20.40;99.90;;;;;;4991820;28;20542;-80
2021/06/26 09:50:10;;;;;;;1.33;0.70;;;20.40;99.90;;;;;;4991737;28;20110;-81
2021/06/26 09:52:45;;;;;;;3.60;0.80;;;20.40;99.90;;;;;;4991573;28;20022;-80
2021/06/26 09:55:26;;;;;;;1.52;0.95;;;20.40;99.90;;;;;;5006726;28;20030;-80
2021/06/26 09:58:13;;;;;;;3.78;0.80;;;20.40;99.90;;;;;;4994707;28;20041;-80
2021/06/26 10:00:41;;;;;;;2.60;0.80;;;20.40;99.90;;;;;;4995018;28;20437;-80
2021/06/26 10:03:07;;;;;;;1.63;0.63;;;20.40;99.90;;;;;;4995297;28;20019;-81
2021/06/26 10:05:33;;;;;;;1.38;0.60;;;20.50;99.90;;;;;;4993613;28;20100;-76
2021/06/26 10:08:02;;;;;;;2.20;0.85;;;20.40;99.90;;;;;;4995129;28;20026;-79
2021/06/26 10:10:28;;;;;;;4.00;0.68;;;20.50;99.90;;;;;;4994667;28;20076;-77
2021/06/26 10:12:55;;;;;;;1.80;0.85;;;20.50;99.90;;;;;;4995526;28;20105;-79
2021/06/26 10:15:23;;;;;;;2.85;0.80;;;20.50;99.90;;;;;;5010036;28;20399;-80
2021/06/26 10:17:49;;;;;;;6.72;1.35;;;20.50;99.90;;;;;;4995876;28;20018;-82
2021/06/26 10:20:17;;;;;;;41.28;9.70;;;20.50;99.90;;;;;;4998303;28;20026;-80
2021/06/26 10:22:57;;;;;;;17.45;2.80;;;20.50;99.90;;;;;;5015058;28;20029;-81
2021/06/26 10:25:33;;;;;;;17.40;2.70;;;20.50;99.90;;;;;;5014855;28;20038;-83
2021/06/26 10:28:08;;;;;;;15.20;4.10;;;20.50;99.90;;;;;;5000587;28;20030;-81
2021/06/26 10:30:34;;;;;;;19.43;3.20;;;20.50;99.90;;;;;;4995022;28;20502;-81
2021/06/26 10:33:03;;;;;;;16.23;3.60;;;20.60;99.90;;;;;;4996515;28;20361;-81
2021/06/26 10:35:32;;;;;;;15.57;3.28;;;20.60;99.90;;;;;;5003026;28;20430;-80
2021/06/26 10:38:05;;;;;;;16.35;2.72;;;20.60;99.90;;;;;;4994613;28;20065;-79
2021/06/26 10:40:38;;;;;;;12.07;2.65;;;20.60;99.90;;;;;;4994284;28;20070;-81
2021/06/26 10:43:23;;;;;;;13.45;3.05;;;20.70;99.90;;;;;;4994609;28;20033;-81
2021/06/26 10:45:51;;;;;;;9.70;2.92;;;20.70;99.90;;;;;;5010303;28;20529;-81
2021/06/26 10:48:24;;;;;;;11.90;2.60;;;20.70;99.90;;;;;;5010421;28;20116;-81
2021/06/26 10:50:52;;;;;;;12.23;2.60;;;20.70;99.90;;;;;;4994988;28;20073;-81
2021/06/26 10:53:29;;;;;;;11.43;2.47;;;20.70;99.90;;;;;;4995254;28;20014;-80
2021/06/26 10:56:16;;;;;;;13.02;2.60;;;20.70;99.90;;;;;;5009840;28;20026;-81
2021/06/26 10:58:44;;;;;;;8.68;2.10;;;20.70;99.90;;;;;;5009671;28;20030;-79
2021/06/26 11:01:12;;;;;;;8.55;1.73;;;20.70;99.90;;;;;;4994818;28;20068;-80
2021/06/26 11:03:38;;;;;;;10.38;2.33;;;20.70;99.90;;;;;;4995209;28;20399;-79
2021/06/26 11:06:17;;;;;;;6.88;1.85;;;20.70;99.90;;;;;;4994098;28;20046;-79
2021/06/26 11:08:58;;;;;;;7.35;1.63;;;20.80;99.90;;;;;;4985349;28;20054;-80
2021/06/26 11:11:32;;;;;;;6.43;1.75;;;20.80;99.90;;;;;;4975033;28;20029;-76
2021/06/26 11:14:24;;;;;;;10.13;1.73;;;20.80;99.90;;;;;;4975081;28;20057;-79
2021/06/26 11:16:55;;;;;;;9.60;2.22;;;20.90;99.90;;;;;;4992442;28;20043;-80
2021/06/26 11:19:27;;;;;;;6.30;1.60;;;21.00;99.90;;;;;;4994272;28;20101;-80
2021/06/26 11:21:55;;;;;;;8.85;1.30;;;21.00;99.90;;;;;;4994136;28;20030;-80
2021/06/26 11:24:40;;;;;;;10.10;1.85;;;21.00;99.90;;;;;;4993726;28;20041;-83
2021/06/26 11:27:08;;;;;;;7.57;1.60;;;21.00;99.90;;;;;;4975241;28;20549;-81
2021/06/26 11:29:38;;;;;;;9.18;1.63;;;21.00;99.90;;;;;;4974440;28;20093;-79
2021/06/26 11:32:26;;;;;;;6.45;1.70;;;21.00;99.90;;;;;;4974400;28;20565;-79
2021/06/26 11:35:10;;;;;;;7.10;1.27;;;21.00;99.90;;;;;;4972962;28;20499;-79
2021/06/26 11:37:35;;;;;;;8.07;1.40;;;21.10;99.90;;;;;;4974158;28;20078;-79
2021/06/26 11:40:20;;;;;;;7.20;1.50;;;21.10;99.90;;;;;;4974671;28;20481;-80
2021/06/26 11:42:48;;;;;;;6.50;1.20;;;21.10;99.90;;;;;;4974938;28;20419;-80
2021/06/26 11:45:16;;;;;;;5.75;1.33;;;21.10;99.90;;;;;;4974264;28;20062;-80
2021/06/26 11:47:42;;;;;;;7.45;1.85;;;21.10;99.90;;;;;;4974133;28;20030;-80
2021/06/26 11:50:13;;;;;;;6.40;1.50;;;21.20;99.90;;;;;;4974312;28;20085;-79
2021/06/26 11:52:38;;;;;;;5.47;1.30;;;21.20;99.90;;;;;;4974244;28;20026;-80
2021/06/26 11:55:04;;;;;;;7.70;1.38;;;21.10;99.90;;;;;;4978287;28;20125;-80
2021/06/26 11:57:30;;;;;;;6.47;1.15;;;21.10;99.90;;;;;;5000957;28;20021;-81
2021/06/26 11:59:56;;;;;;;3.15;0.93;;;21.10;99.90;;;;;;4993509;28;20038;-81
2021/06/26 12:02:31;;;;;;;3.80;1.23;;;21.20;99.90;;;;;;4993482;28;20023;-80
2021/06/26 12:04:57;;;;;;;3.53;1.10;;;21.20;99.90;;;;;;4992145;28;20455;-81
2021/06/26 12:07:36;;;;;;;3.53;1.00;;;21.30;99.90;;;;;;4989944;28;20126;-81
2021/06/26 12:10:07;;;;;;;5.55;1.15;;;21.30;99.90;;;;;;4981527;28;20026;-80
2021/06/26 12:12:37;;;;;;;5.88;1.23;;;21.30;99.90;;;;;;4993085;28;20494;-81
2021/06/26 12:15:12;;;;;;;2.88;0.93;;;21.40;99.90;;;;;;4993218;28;20471;-81
2021/06/26 12:17:39;;;;;;;3.17;1.60;;;21.40;99.90;;;;;;4992565;28;20041;-81
2021/06/26 12:20:08;;;;;;;4.38;1.05;;;21.50;99.90;;;;;;4991973;28;20053;-80
2021/06/26 12:22:34;;;;;;;3.38;0.98;;;21.50;99.90;;;;;;4992751;28;20383;-81
2021/06/26 12:25:16;;;;;;;4.15;1.30;;;21.50;99.90;;;;;;4992811;28;20030;-79
2021/06/26 12:27:43;;;;;;;2.80;0.90;;;21.60;99.90;;;;;;4991556;28;20093;-82
2021/06/26 12:30:14;;;;;;;6.28;1.85;;;21.60;99.90;;;;;;4991500;28;20026;-80
2021/06/26 12:32:40;;;;;;;2.97;1.20;;;21.60;99.90;;;;;;4991500;28;20042;-81
2021/06/26 12:35:08;;;;;;;7.45;1.30;;;21.70;99.90;;;;;;5024222;28;20029;-80
2021/06/26 12:37:35;;;;;;;9.98;1.52;;;21.70;99.90;;;;;;4992301;28;20037;-80
2021/06/26 12:40:02;;;;;;;5.15;1.40;;;21.80;99.90;;;;;;4992843;28;20775;-80
2021/06/26 12:42:28;;;;;;;7.65;2.10;;;21.70;99.90;;;;;;5004540;28;20029;-78
2021/06/26 12:44:56;;;;;;;5.07;1.60;;;21.70;99.90;;;;;;4987957;28;20034;-78
2021/06/26 12:47:22;;;;;;;8.95;2.15;;;21.80;99.90;;;;;;4990901;28;20028;-78